Sauquoit, NY

11:22 PM EDT on July 07, 2015 (GMT -0400)
Washington Mills | | Change Station
CLOSE
Current Station
Personal Weather Station
Location: New Hartford, NY
Elevation: 902 ft
Nearby Weather Stations

Elev 902 ft 43.04 °N, 75.25 °W | Updated 1 second ago

Mostly Cloudy
Mostly Cloudy
72.7 °F
Feels Like 72 °F
N
0.0
Wind Variable Wind from SE
Gusts 1.2 mph

Today
High -- | Low -- °F
--% Chance of Precip.
Yesterday
High -- | Low -- °F
Precip. -- in
5:29 AM 8:42 PM
Waning Gibbous, 58% visible
Pressure 29.89 in
Visibility 10.0 miles
Clouds Clear
Heat Index 72 °F
Dew Point 67 °F
Humidity 83%
Rainfall 0.05 in
Snow Depth Not available.
UV 0.0 out of 12
Pollen 3.90 out of 12
Air Quality Not available.
Flu Activity Not available.
METAR KRME 080253Z AUTO 02004KT 10SM CLR 22/20 A2990 RMK AO2 RAB0158E12 SLP121 P0001 60001 T02170200 50011

More Conditions Fewer Conditions

Pressure 29.89 in
Visibility 10.0 miles
Clouds Clear
Heat Index 72 °F
Dew Point 67 °F
Humidity 83%
Rainfall 0.05 in
Snow Depth Not available.
UV 0.0 out of 12
Pollen 3.90 out of 12
Air Quality Not available.
Flu Activity Not available.
METAR KRME 080253Z AUTO 02004KT 10SM CLR 22/20 A2990 RMK AO2 RAB0158E12 SLP121 P0001 60001 T02170200 50011

More Conditions Fewer Conditions

10-Day Weather Forecast

×

Almanac

Astronomy

Jul. 07, 2015 Rise Set
Actual Time
Civil Twilight
Nautical Twilight
Astronomical Twilight
Moon
Length of Visible Light
Length of Day
Tomorrow will be .
, % of the Moon is Illuminated

Today's Extremes

State Highs State Lows

Community

WunderPhotos

Upload Photos

1,836,031 photos uploaded!

WunderBlogs® & News

Nearby

Air Quality

  Air Quality AQ Index Pollutant
Not available.

Snow Depth

Station Depth Elevation

Earthquake Activity

City Distance Mag. Time & Date
Minimum magnitude displayed is 2.5.

Coastal Water Temperatures

Place Temperature

Stations

Nearby Weather Stations

Station Location Temp. Windchill Dew Point Humidity Wind Precip. Elev Updated Type